Time;durP1;ratioP1;P1;durP2;ratioP2;P2;SDS_P1;SDS_P2;PMS_P1;PMS_P2;Temp;Humidity;BMP_temperature;BMP_pressure;BME280_temperature;BME280_humidity;BME280_pressure;Samples;Min_cycle;Max_cycle;Signal;HPM_P1;HPM_P2
2022/11/28 00:00:13;;;;;;;12.07;6.60;;;;;;;6.17;100.00;67460.09;5024970;28;20038;-87
2022/11/28 00:02:47;;;;;;;10.85;7.35;;;;;;;6.19;100.00;67454.44;5024156;28;20038;-85
2022/11/28 00:05:13;;;;;;;10.57;6.60;;;;;;;6.22;100.00;67460.47;5025287;28;20433;-86
2022/11/28 00:07:38;;;;;;;8.73;6.05;;;;;;;6.23;100.00;67467.44;5035029;28;20049;-85
2022/11/28 00:10:06;;;;;;;10.38;7.45;;;;;;;6.24;100.00;67468.56;5028835;28;20034;-85
2022/11/28 00:12:31;;;;;;;9.98;6.43;;;;;;;;;;5028348;28;20080;-85
2022/11/28 00:14:56;;;;;;;10.50;6.65;;;;;;;6.27;100.00;67471.97;5018747;28;20041;-85
2022/11/28 00:17:22;;;;;;;10.65;6.93;;;;;;;6.29;100.00;67474.22;5026723;28;20041;-85
2022/11/28 00:19:47;;;;;;;10.48;6.03;;;;;;;6.30;100.00;67469.50;5025730;28;20037;-86
2022/11/28 00:22:12;;;;;;;10.05;6.75;;;;;;;;;;5013735;28;20052;-86
2022/11/28 00:24:39;;;;;;;8.48;5.63;;;;;;;6.34;100.00;67479.31;5019709;28;20049;-86
2022/11/28 00:27:04;;;;;;;10.40;6.30;;;;;;;6.33;100.00;67473.47;5026931;28;20068;-85
2022/11/28 00:29:30;;;;;;;10.57;5.80;;;;;;;6.36;100.00;67476.28;5027753;28;20119;-85
2022/11/28 00:31:55;;;;;;;9.68;6.45;;;;;;;;;;5028642;28;20449;-85
2022/11/28 00:34:20;;;;;;;9.18;6.65;;;;;;;;;;5006198;28;20042;-85
2022/11/28 00:36:46;;;;;;;9.57;6.47;;;;;;;;;;5017064;28;20179;-85
2022/11/28 00:39:12;;;;;;;10.27;5.97;;;;;;;6.35;100.00;67480.44;5016621;28;20045;-85
2022/11/28 00:41:37;;;;;;;8.23;6.05;;;;;;;6.38;100.00;67483.25;5040561;28;20036;-85
2022/11/28 00:44:03;;;;;;;10.68;6.82;;;;;;;6.39;100.00;67484.38;5019600;28;20121;-85
2022/11/28 00:46:28;;;;;;;8.43;5.63;;;;;;;;;;5016879;28;20054;-85
2022/11/28 00:48:54;;;;;;;9.52;7.10;;;;;;;;;;5018142;28;20049;-85
2022/11/28 00:51:28;;;;;;;10.60;6.47;;;;;;;6.40;100.00;67480.81;5033059;28;20512;-85
2022/11/28 00:53:58;;;;;;;10.98;7.05;;;;;;;6.39;100.00;67484.97;5017504;28;20401;-85
2022/11/28 00:56:32;;;;;;;11.77;6.53;;;;;;;6.41;100.00;67481.38;5041637;28;20053;-85
2022/11/28 00:58:57;;;;;;;10.60;7.22;;;;;;;;;;5039159;28;20123;-85
2022/11/28 01:01:36;;;;;;;10.18;6.65;;;;;;;6.41;100.00;67487.22;5028736;28;20105;-86
2022/11/28 01:04:05;;;;;;;12.65;6.78;;;;;;;6.42;100.00;67488.34;5008518;28;20042;-85
2022/11/28 01:06:36;;;;;;;10.38;6.80;;;;;;;6.41;100.00;67486.66;5030118;28;20046;-86
2022/11/28 01:09:07;;;;;;;11.98;6.63;;;;;;;6.43;100.00;67483.63;5023286;28;20547;-85
2022/11/28 01:11:33;;;;;;;8.90;7.32;;;;;;;6.44;100.00;67490.59;5016082;28;20049;-85
2022/11/28 01:14:00;;;;;;;10.38;7.40;;;;;;;;;;5040611;28;20052;-86
2022/11/28 01:16:25;;;;;;;9.70;7.50;;;;;;;;;;5016941;28;20599;-85
2022/11/28 01:18:50;;;;;;;9.65;6.13;;;;;;;;;;5014885;28;20037;-85
2022/11/28 01:21:17;;;;;;;12.15;7.68;;;;;;;6.45;100.00;67483.81;5026843;28;20057;-86
2022/11/28 01:23:43;;;;;;;10.07;6.75;;;;;;;6.43;100.00;67484.19;5027060;28;20076;-85
2022/11/28 01:26:11;;;;;;;9.02;6.78;;;;;;;6.45;100.00;67486.47;5032465;28;20551;-86
2022/11/28 01:28:36;;;;;;;9.80;7.82;;;;;;;6.45;100.00;67486.47;5027797;28;20088;-86
2022/11/28 01:31:09;;;;;;;11.85;7.80;;;;;;;;;;5022707;28;20037;-85
2022/11/28 01:33:34;;;;;;;11.80;7.60;;;;;;;6.46;100.00;67484.94;5023031;28;20132;-85
2022/11/28 01:36:00;;;;;;;12.27;7.70;;;;;;;6.44;100.00;67485.31;5033822;28;20160;-85
2022/11/28 01:38:26;;;;;;;12.50;7.90;;;;;;;6.45;100.00;67491.75;5029402;28;20410;-85
2022/11/28 01:40:52;;;;;;;11.23;7.50;;;;;;;6.46;100.00;67492.88;5015345;28;20042;-85
2022/11/28 01:43:18;;;;;;;13.80;7.97;;;;;;;6.47;100.00;67488.16;5032827;28;20083;-86
2022/11/28 01:45:44;;;;;;;12.70;8.70;;;;;;;6.49;100.00;67496.25;5045818;28;20183;-84
2022/11/28 01:48:11;;;;;;;12.20;7.95;;;;;;;;;;5048870;28;20148;-85
2022/11/28 01:50:37;;;;;;;13.05;8.45;;;;;;;;;;5044185;28;20064;-85
2022/11/28 01:53:07;;;;;;;11.10;7.93;;;;;;;6.51;100.00;67492.69;5028720;28;20045;-85
2022/11/28 01:55:35;;;;;;;12.38;7.53;;;;;;;;;;5026313;28;20048;-85
2022/11/28 01:58:01;;;;;;;12.63;8.57;;;;;;;6.53;100.00;67492.88;5025875;28;20092;-85
2022/11/28 02:00:26;;;;;;;13.13;9.60;;;;;;;;;;5016086;28;20046;-85
2022/11/28 02:02:58;;;;;;;15.20;9.10;;;;;;;6.53;100.00;67500.81;5009930;28;20041;-85
2022/11/28 02:05:23;;;;;;;11.77;8.73;;;;;;;6.52;100.00;67494.38;5024481;28;20137;-85
2022/11/28 02:07:50;;;;;;;12.45;8.32;;;;;;;6.55;100.00;67497.75;5009849;28;20132;-85
2022/11/28 02:10:22;;;;;;;11.95;9.15;;;;;;;6.55;100.00;67494.56;5040701;28;20058;-85
2022/11/28 02:13:19;;;;;;;14.57;9.52;;;;;;;6.57;100.00;67498.91;5010250;28;20045;-86
2022/11/28 02:16:00;;;;;;;12.88;7.88;;;;;;;;;;5001061;28;20037;-86
2022/11/28 02:18:33;;;;;;;13.68;8.60;;;;;;;;;;5039283;28;20041;-85
2022/11/28 02:21:08;;;;;;;14.77;9.30;;;;;;;6.58;100.00;67505.31;5029798;28;20064;-87
2022/11/28 02:24:10;;;;;;;14.43;10.07;;;;;;;6.58;100.00;67505.31;5016733;28;20103;-87
2022/11/28 02:27:12;;;;;;;12.13;9.15;;;;;;;6.59;100.00;67506.44;4993866;28;20053;-86
2022/11/28 02:30:02;;;;;;;14.38;9.13;;;;;;;6.60;100.00;67502.28;5009731;28;20052;-85
2022/11/28 02:32:34;;;;;;;15.20;9.35;;;;;;;;;;5022927;28;20046;-85
2022/11/28 02:35:41;;;;;;;15.27;9.68;;;;;;;6.62;100.00;67509.81;5011627;28;20033;-86
2022/11/28 02:38:06;;;;;;;11.82;9.65;;;;;;;;;;5022319;28;20048;-85
2022/11/28 02:40:31;;;;;;;14.73;9.70;;;;;;;;;;5017993;28;20041;-85
2022/11/28 02:43:03;;;;;;;15.67;10.13;;;;;;;6.64;100.00;67504.16;5027161;28;21009;-85
2022/11/28 02:45:39;;;;;;;14.25;9.57;;;;;;;6.64;100.00;67504.16;5021713;28;20306;-85
2022/11/28 02:48:12;;;;;;;14.10;10.27;;;;;;;6.64;100.00;67507.38;5028200;28;20045;-86
2022/11/28 02:50:50;;;;;;;14.77;10.35;;;;;;;6.66;100.00;67509.06;5023870;28;20387;-85
2022/11/28 02:53:20;;;;;;;16.02;10.32;;;;;;;6.66;100.00;67509.06;5013239;28;20139;-85
2022/11/28 02:55:47;;;;;;;16.13;9.35;;;;;;;6.66;100.00;67509.06;5020639;28;20056;-85
2022/11/28 02:58:12;;;;;;;15.90;10.15;;;;;;;;;;5016576;28;20432;-86
2022/11/28 03:00:39;;;;;;;16.85;10.40;;;;;;;6.66;100.00;67519.66;5023519;28;20113;-85
2022/11/28 03:03:59;;;;;;;18.10;11.40;;;;;;;6.64;100.00;67504.16;5018462;28;20045;-85
2022/11/28 03:06:24;;;;;;;13.48;10.95;;;;;;;;;;5023607;28;20065;-86
2022/11/28 03:08:52;;;;;;;16.90;11.20;;;;;;;;;;5026975;28;20603;-85
2022/11/28 03:11:24;;;;;;;14.90;10.55;;;;;;;6.61;100.00;67503.97;5020968;28;20041;-85
2022/11/28 03:14:15;;;;;;;16.13;10.45;;;;;;;;;;5009888;28;20041;-85
2022/11/28 03:16:55;;;;;;;16.17;11.50;;;;;;;6.62;100.00;67509.81;4988701;28;20045;-85
2022/11/28 03:19:23;;;;;;;17.17;12.57;;;;;;;;;;5033573;28;20049;-85
2022/11/28 03:22:27;;;;;;;16.05;11.77;;;;;;;6.62;100.00;67504.53;5035366;28;20453;-85
2022/11/28 03:25:01;;;;;;;17.30;11.77;;;;;;;6.62;100.00;67501.91;4941635;28;20131;-85
2022/11/28 03:27:35;;;;;;;16.73;12.70;;;;;;;6.62;100.00;67505.13;4944750;28;20054;-85
2022/11/28 03:30:10;;;;;;;15.73;10.98;;;;;;;6.62;100.00;67504.53;4947242;28;20035;-86
2022/11/28 03:32:39;;;;;;;15.45;11.30;;;;;;;6.62;100.00;67509.81;4948677;28;20110;-87
2022/11/28 03:35:16;;;;;;;17.75;13.82;;;;;;;6.63;100.00;67510.97;4946884;28;20129;-85
2022/11/28 03:37:47;;;;;;;18.55;11.43;;;;;;;6.63;100.00;67511.53;4947461;28;20047;-85
2022/11/28 03:40:14;;;;;;;16.00;12.20;;;;;;;;;;4968761;28;20086;-85
2022/11/28 03:42:43;;;;;;;17.83;11.82;;;;;;;;;;4957997;28;20133;-85
2022/11/28 03:45:20;;;;;;;14.70;11.27;;;;;;;6.66;100.00;67514.38;4957944;28;20057;-85
2022/11/28 03:47:52;;;;;;;16.48;11.52;;;;;;;6.67;100.00;67507.56;4970189;28;20085;-84
2022/11/28 03:50:27;;;;;;;15.50;10.50;;;;;;;6.68;100.00;67511.34;4964298;28;20447;-84
2022/11/28 03:52:55;;;;;;;17.52;10.82;;;;;;;;;;4947472;28;20202;-86
2022/11/28 03:55:29;;;;;;;16.45;10.32;;;;;;;6.70;100.00;67519.47;4944774;28;20039;-85
2022/11/28 03:58:13;;;;;;;15.10;10.50;;;;;;;;;;4965478;28;20294;-85
2022/11/28 04:00:57;;;;;;;17.83;12.35;;;;;;;6.72;100.00;67521.16;4939263;28;20787;-85
2022/11/28 04:03:53;;;;;;;20.05;10.38;;;;;;;6.72;100.00;67515.84;4966257;28;20492;-86
2022/11/28 04:06:24;;;;;;;15.85;10.38;;;;;;;6.73;100.00;67517.56;4999506;28;20497;-85
2022/11/28 04:08:59;;;;;;;18.02;12.90;;;;;;;;;;5026017;28;20056;-85
2022/11/28 04:11:36;;;;;;;18.13;13.02;;;;;;;6.72;100.00;67521.72;5004712;28;20104;-85
2022/11/28 04:14:01;;;;;;;17.55;11.85;;;;;;;;;;5027866;28;20067;-85
2022/11/28 04:16:27;;;;;;;17.58;12.73;;;;;;;;;;5028748;28;20386;-85
2022/11/28 04:19:07;;;;;;;18.13;11.20;;;;;;;;;;5024034;28;20064;-85
2022/11/28 04:21:36;;;;;;;17.38;10.55;;;;;;;6.73;100.00;67522.28;5030658;28;20041;-84
2022/11/28 04:24:07;;;;;;;17.08;11.18;;;;;;;6.73;100.00;67516.97;5022801;28;20452;-85
2022/11/28 04:26:35;;;;;;;24.00;14.38;;;;;;;6.73;100.00;67517.56;5013751;28;20049;-85
2022/11/28 04:29:03;;;;;;;21.60;15.18;;;;;;;;;;5013108;28;20034;-85
2022/11/28 04:31:29;;;;;;;20.00;12.13;;;;;;;6.72;100.00;67521.16;5015886;28;20128;-85
2022/11/28 04:33:57;;;;;;;22.65;14.18;;;;;;;;;;5040582;28;20040;-85
2022/11/28 04:36:25;;;;;;;19.45;14.18;;;;;;;6.70;100.00;67514.19;5028432;28;20065;-85
2022/11/28 04:38:56;;;;;;;20.73;14.23;;;;;;;6.71;100.00;67520.03;5014815;28;20038;-84
2022/11/28 04:41:31;;;;;;;20.50;13.73;;;;;;;6.67;100.00;67516.06;5029283;28;20038;-84
2022/11/28 04:44:07;;;;;;;21.15;15.20;;;;;;;6.67;100.00;67510.19;5031197;28;20094;-84
2022/11/28 04:46:36;;;;;;;20.98;15.45;;;;;;;;;;5024414;28;20095;-85
2022/11/28 04:49:02;;;;;;;20.60;13.68;;;;;;;6.64;100.00;67512.09;5024800;28;20073;-84
2022/11/28 04:51:52;;;;;;;21.58;12.90;;;;;;;6.63;100.00;67506.25;5049040;28;20048;-85
2022/11/28 04:54:27;;;;;;;25.35;16.52;;;;;;;;;;5027101;28;20129;-85
2022/11/28 04:56:56;;;;;;;25.70;17.58;;;;;;;;;;5023483;28;20046;-85
2022/11/28 04:59:25;;;;;;;20.35;12.68;;;;;;;6.59;100.00;67499.09;5022183;28;20045;-85
2022/11/28 05:01:51;;;;;;;22.80;16.45;;;;;;;6.61;100.00;67503.41;5018350;28;20527;-86
2022/11/28 05:04:16;;;;;;;23.60;16.58;;;;;;;6.61;100.00;67508.72;5028116;28;20041;-86
2022/11/28 05:06:42;;;;;;;24.88;15.07;;;;;;;;;;5022827;28;20460;-85
2022/11/28 05:09:10;;;;;;;21.05;14.98;;;;;;;6.58;100.00;67500.03;5021442;28;20111;-85
2022/11/28 05:11:36;;;;;;;25.90;16.42;;;;;;;6.59;100.00;67501.16;5029138;28;20091;-84
2022/11/28 05:14:01;;;;;;;23.30;15.43;;;;;;;;;;5029106;28;20428;-85
2022/11/28 05:16:26;;;;;;;25.02;17.23;;;;;;;;;;5018716;28;20050;-85
2022/11/28 05:18:52;;;;;;;26.52;16.90;;;;;;;6.54;100.00;67496.63;5030250;28;20061;-84
2022/11/28 05:21:17;;;;;;;21.02;14.57;;;;;;;6.53;100.00;67500.22;5021234;28;20057;-83
2022/11/28 05:23:44;;;;;;;23.05;15.88;;;;;;;6.53;100.00;67500.22;5011378;28;20082;-84
2022/11/28 05:26:19;;;;;;;20.75;14.70;;;;;;;6.53;100.00;67495.50;5008657;28;20049;-85
2022/11/28 05:28:48;;;;;;;20.30;14.45;;;;;;;;;;5012316;28;20056;-84
2022/11/28 05:31:15;;;;;;;19.00;13.07;;;;;;;6.50;100.00;67491.53;5032797;28;20037;-84
2022/11/28 05:33:41;;;;;;;20.92;13.32;;;;;;;6.48;100.00;67495.13;5022649;28;20053;-84
2022/11/28 05:36:09;;;;;;;23.38;14.52;;;;;;;6.48;100.00;67495.13;5022028;28;20045;-83
2022/11/28 05:38:34;;;;;;;24.47;16.30;;;;;;;6.48;100.00;67489.84;5040720;28;20037;-86
2022/11/28 05:41:01;;;;;;;24.83;12.88;;;;;;;6.48;100.00;67489.84;5012169;28;20079;-84
2022/11/28 05:43:27;;;;;;;24.38;16.25;;;;;;;6.47;100.00;67488.16;5008112;28;20048;-85
2022/11/28 05:45:53;;;;;;;25.15;15.30;;;;;;;6.46;100.00;67492.88;5010028;28;20065;-85
2022/11/28 05:48:18;;;;;;;19.88;14.07;;;;;;;6.46;100.00;67492.31;5037327;28;20095;-86
2022/11/28 05:50:43;;;;;;;21.45;14.05;;;;;;;6.45;100.00;67491.75;5020869;28;20080;-84
2022/11/28 05:53:10;;;;;;;23.80;15.95;;;;;;;6.46;100.00;67487.03;5007180;28;20491;-85
2022/11/28 05:55:39;;;;;;;23.58;14.98;;;;;;;6.48;100.00;67489.28;5016935;28;20034;-84
2022/11/28 05:58:05;;;;;;;22.00;14.07;;;;;;;6.47;100.00;67486.09;5025633;28;20072;-86
2022/11/28 06:00:30;;;;;;;24.58;14.77;;;;;;;6.46;100.00;67487.03;5027414;28;20041;-85
2022/11/28 06:02:56;;;;;;;25.58;14.95;;;;;;;6.46;100.00;67494.94;5030720;28;20658;-84
2022/11/28 06:05:21;;;;;;;21.08;13.63;;;;;;;;;;5015450;28;20038;-84
2022/11/28 06:07:46;;;;;;;20.58;13.18;;;;;;;;;;5023365;28;20042;-86
2022/11/28 06:10:12;;;;;;;23.88;15.52;;;;;;;6.46;100.00;67487.59;5021664;28;20044;-84
2022/11/28 06:12:37;;;;;;;23.95;15.65;;;;;;;;;;5025425;28;20493;-85
2022/11/28 06:15:03;;;;;;;24.40;16.02;;;;;;;6.44;100.00;67490.59;5027503;28;20044;-84
2022/11/28 06:17:29;;;;;;;22.92;14.65;;;;;;;;;;5024990;28;20046;-84
2022/11/28 06:19:55;;;;;;;23.20;14.93;;;;;;;6.44;100.00;67485.31;5030564;28;20043;-84
2022/11/28 06:22:20;;;;;;;21.80;14.13;;;;;;;6.43;100.00;67483.63;5023764;28;20128;-84
2022/11/28 06:24:45;;;;;;;25.33;16.88;;;;;;;6.42;100.00;67488.34;5023551;28;20581;-85
2022/11/28 06:27:10;;;;;;;22.00;14.13;;;;;;;;;;5027035;28;20033;-84
2022/11/28 06:29:36;;;;;;;22.25;15.27;;;;;;;6.40;100.00;67486.09;5029743;28;20059;-84
2022/11/28 06:32:01;;;;;;;23.60;15.45;;;;;;;6.40;100.00;67480.81;5029691;28;20042;-86
2022/11/28 06:34:27;;;;;;;20.05;12.38;;;;;;;6.39;100.00;67484.97;5014234;28;20041;-84
2022/11/28 06:36:52;;;;;;;22.77;14.63;;;;;;;6.41;100.00;67481.38;5006344;28;20065;-85
2022/11/28 06:39:17;;;;;;;24.52;16.00;;;;;;;;;;5032276;28;20049;-85
2022/11/28 06:41:43;;;;;;;24.30;15.07;;;;;;;;;;5024931;28;20084;-85
2022/11/28 06:44:13;;;;;;;23.80;14.98;;;;;;;6.39;100.00;67484.38;5026819;28;20413;-85
2022/11/28 06:46:39;;;;;;;22.20;14.65;;;;;;;6.38;100.00;67477.97;5029498;28;20029;-84
2022/11/28 06:49:04;;;;;;;22.83;15.30;;;;;;;;;;5032498;28;20044;-84
2022/11/28 06:51:29;;;;;;;22.00;15.45;;;;;;;6.38;100.00;67478.53;5027490;28;20037;-84
2022/11/28 06:53:55;;;;;;;22.80;14.90;;;;;;;;;;5025503;28;20042;-84
2022/11/28 06:56:20;;;;;;;24.15;16.08;;;;;;;;;;5029831;28;20358;-85
2022/11/28 06:58:46;;;;;;;23.27;16.42;;;;;;;;;;5030879;28;20041;-84
2022/11/28 07:01:19;;;;;;;23.45;17.67;;;;;;;6.36;100.00;67476.28;5022593;28;20041;-84
2022/11/28 07:03:45;;;;;;;23.50;16.02;;;;;;;6.33;100.00;67470.81;5030531;28;20033;-84
2022/11/28 07:06:12;;;;;;;21.85;15.77;;;;;;;6.33;100.00;67478.75;5043585;28;20265;-84
2022/11/28 07:08:38;;;;;;;25.00;17.05;;;;;;;6.31;100.00;67476.47;5032634;28;20065;-84
2022/11/28 07:11:09;;;;;;;23.88;17.00;;;;;;;;;;5028166;28;20049;-84
2022/11/28 07:13:35;;;;;;;23.15;17.48;;;;;;;6.32;100.00;67471.75;5035349;28;20072;-83
2022/11/28 07:16:00;;;;;;;21.92;16.17;;;;;;;6.31;100.00;67470.63;5031217;28;20501;-84
2022/11/28 07:18:25;;;;;;;23.45;16.35;;;;;;;6.30;100.00;67469.50;5029624;28;20033;-84
2022/11/28 07:20:51;;;;;;;24.92;16.60;;;;;;;6.31;100.00;67470.63;5037847;28;20048;-84
2022/11/28 07:23:16;;;;;;;26.20;19.30;;;;;;;;;;5029594;28;20026;-84
2022/11/28 07:25:41;;;;;;;27.83;17.95;;;;;;;6.30;100.00;67474.78;5029927;28;20049;-84
2022/11/28 07:28:06;;;;;;;24.33;17.15;;;;;;;6.31;100.00;67470.63;5032046;28;20140;-84
2022/11/28 07:30:32;;;;;;;25.58;16.85;;;;;;;6.29;100.00;67473.66;5029311;28;20046;-84
2022/11/28 07:32:57;;;;;;;28.05;19.25;;;;;;;;;;5031141;28;20551;-84
2022/11/28 07:35:23;;;;;;;24.23;18.73;;;;;;;6.28;100.00;67467.81;5029044;28;20077;-84
2022/11/28 07:37:48;;;;;;;22.65;16.40;;;;;;;6.27;100.00;67466.69;5023008;28;20154;-84
2022/11/28 07:40:13;;;;;;;28.15;19.42;;;;;;;;;;5030551;28;20097;-84
2022/11/28 07:42:39;;;;;;;27.27;17.17;;;;;;;;;;5027312;28;20045;-84
2022/11/28 07:45:05;;;;;;;25.88;16.88;;;;;;;6.26;100.00;67470.81;5035477;28;20064;-84
2022/11/28 07:47:31;;;;;;;24.55;17.77;;;;;;;6.27;100.00;67471.38;5035778;28;20488;-84
2022/11/28 07:49:56;;;;;;;27.42;16.17;;;;;;;6.28;100.00;67472.53;5031920;28;20117;-84
2022/11/28 07:52:21;;;;;;;24.08;15.15;;;;;;;6.29;100.00;67465.72;5037873;28;20038;-85
2022/11/28 07:54:48;;;;;;;26.88;17.30;;;;;;;6.28;100.00;67472.53;5042695;28;20041;-84
2022/11/28 07:57:13;;;;;;;26.05;16.50;;;;;;;6.28;100.00;67472.53;5047748;28;20075;-84
2022/11/28 07:59:39;;;;;;;25.75;16.20;;;;;;;6.27;100.00;67471.38;5053854;28;20049;-84
2022/11/28 08:02:04;;;;;;;25.20;16.30;;;;;;;6.27;100.00;67471.38;5047571;28;20048;-84
2022/11/28 08:04:30;;;;;;;25.15;17.50;;;;;;;6.27;100.00;67471.38;5059390;28;20065;-85
2022/11/28 08:06:55;;;;;;;24.10;16.75;;;;;;;6.28;100.00;67467.81;5053393;28;20045;-85
2022/11/28 08:09:21;;;;;;;27.75;18.88;;;;;;;;;;5041817;28;20049;-83
2022/11/28 08:11:46;;;;;;;27.38;17.95;;;;;;;6.29;100.00;67468.38;5031141;28;20099;-84
2022/11/28 08:14:13;;;;;;;22.67;15.02;;;;;;;;;;5033645;28;20037;-84
2022/11/28 08:16:43;;;;;;;28.35;18.08;;;;;;;;;;5016061;28;20077;-83
2022/11/28 08:19:09;;;;;;;29.20;18.85;;;;;;;;;;5023354;28;20336;-84
2022/11/28 08:21:35;;;;;;;23.55;16.42;;;;;;;;;;5041159;28;20036;-84
2022/11/28 08:24:01;;;;;;;24.27;17.20;;;;;;;;;;5037163;28;20045;-84
2022/11/28 08:26:27;;;;;;;24.63;18.45;;;;;;;;;;5028815;28;20092;-84
2022/11/28 08:28:53;;;;;;;27.67;18.35;;;;;;;;;;5026090;28;20138;-84
2022/11/28 08:31:24;;;;;;;27.00;17.40;;;;;;;6.27;100.00;67466.09;5029875;28;20124;-84
2022/11/28 08:33:51;;;;;;;24.02;16.42;;;;;;;;;;5033266;28;20042;-84
2022/11/28 08:36:18;;;;;;;26.33;15.80;;;;;;;6.27;100.00;67466.69;5030911;28;20107;-83
2022/11/28 08:38:45;;;;;;;25.75;17.00;;;;;;;;;;5040488;28;20045;-84
2022/11/28 08:41:22;;;;;;;26.05;18.40;;;;;;;6.28;100.00;67472.53;5037579;28;20128;-84
2022/11/28 08:43:47;;;;;;;24.85;16.42;;;;;;;;;;5052721;28;20068;-84
2022/11/28 08:46:18;;;;;;;28.73;19.75;;;;;;;6.28;100.00;67467.25;5054445;28;20500;-83
2022/11/28 08:48:44;;;;;;;24.77;17.35;;;;;;;;;;5027111;28;20053;-85
2022/11/28 08:51:14;;;;;;;28.73;16.08;;;;;;;;;;5041880;28;20172;-84
2022/11/28 08:53:40;;;;;;;25.02;17.45;;;;;;;;;;5037840;28;20532;-85
2022/11/28 08:56:06;;;;;;;25.75;15.35;;;;;;;6.24;100.00;67463.28;5031619;28;20052;-84
2022/11/28 08:58:31;;;;;;;25.95;17.55;;;;;;;6.27;100.00;67474.03;5041252;28;20042;-83
2022/11/28 09:00:57;;;;;;;24.65;13.70;;;;;;;6.26;100.00;67465.53;5029404;28;20068;-84
2022/11/28 09:03:23;;;;;;;25.08;17.50;;;;;;;6.26;100.00;67470.25;5029386;28;20442;-84
2022/11/28 09:05:48;;;;;;;23.50;16.00;;;;;;;;;;5033752;28;20116;-84
2022/11/28 09:08:15;;;;;;;28.58;17.08;;;;;;;6.27;100.00;67471.38;5026092;28;20045;-83
2022/11/28 09:10:42;;;;;;;28.35;16.80;;;;;;;6.26;100.00;67464.97;5042411;28;20409;-84
2022/11/28 09:13:08;;;;;;;28.42;18.98;;;;;;;6.26;100.00;67470.25;5029423;28;20107;-84
2022/11/28 09:15:38;;;;;;;26.05;18.60;;;;;;;6.25;100.00;67464.41;5030593;28;20081;-84
2022/11/28 09:18:03;;;;;;;25.70;19.38;;;;;;;6.27;100.00;67463.44;5031685;28;20085;-84
2022/11/28 09:20:28;;;;;;;27.42;15.63;;;;;;;6.27;100.00;67471.97;5035625;28;20048;-83
2022/11/28 09:22:53;;;;;;;27.35;18.00;;;;;;;;;;5030079;28;20066;-84
2022/11/28 09:25:19;;;;;;;25.33;17.02;;;;;;;6.27;100.00;67466.09;5034872;28;20111;-84
2022/11/28 09:27:44;;;;;;;23.40;14.48;;;;;;;6.28;100.00;67472.53;5027579;28;20055;-84
2022/11/28 09:30:10;;;;;;;27.25;19.85;;;;;;;6.29;100.00;67474.22;5022733;28;20042;-83
2022/11/28 09:32:35;;;;;;;26.88;16.58;;;;;;;6.28;100.00;67467.81;5013276;28;20038;-84
2022/11/28 09:35:01;;;;;;;28.42;19.60;;;;;;;;;;5022573;28;20038;-84
2022/11/28 09:37:27;;;;;;;29.08;19.48;;;;;;;6.29;100.00;67468.38;5027371;28;20217;-84
2022/11/28 09:39:53;;;;;;;24.73;17.13;;;;;;;6.29;100.00;67465.72;5034828;28;20033;-84
2022/11/28 09:42:31;;;;;;;28.73;17.98;;;;;;;6.27;100.00;67471.97;5031802;28;20508;-84
2022/11/28 09:45:01;;;;;;;26.17;18.40;;;;;;;;;;5036555;28;20037;-84
2022/11/28 09:47:33;;;;;;;25.40;17.30;;;;;;;6.33;100.00;67473.47;5040566;28;20111;-84
2022/11/28 09:49:59;;;;;;;29.20;18.40;;;;;;;;;;5048006;28;20107;-85
2022/11/28 09:52:28;;;;;;;26.77;17.45;;;;;;;6.35;100.00;67480.44;5026368;28;20081;-83
2022/11/28 09:55:09;;;;;;;26.07;19.03;;;;;;;6.36;100.00;67481.56;5029450;28;20045;-84
2022/11/28 09:57:38;;;;;;;28.42;20.02;;;;;;;;;;5019827;28;20046;-83
2022/11/28 10:00:04;;;;;;;26.77;18.33;;;;;;;;;;5010463;28;20041;-83
2022/11/28 10:02:51;;;;;;;27.60;17.13;;;;;;;6.36;100.00;67473.06;5025500;28;20057;-84
2022/11/28 10:05:26;;;;;;;31.02;18.92;;;;;;;;;;5028137;28;20221;-84
2022/11/28 10:08:13;;;;;;;28.50;20.67;;;;;;;6.37;100.00;67477.41;5009507;28;20641;-84
2022/11/28 10:10:54;;;;;;;27.88;18.77;;;;;;;6.38;100.00;67478.53;5022613;28;20042;-83
2022/11/28 10:13:54;;;;;;;27.50;20.00;;;;;;;6.40;100.00;67480.25;5026160;28;20041;-84
2022/11/28 10:16:44;;;;;;;28.13;20.33;;;;;;;6.40;100.00;67480.81;5025402;28;20069;-84
2022/11/28 10:19:14;;;;;;;33.85;19.45;;;;;;;6.39;100.00;67484.97;5039649;28;20105;-84
2022/11/28 10:21:54;;;;;;;32.53;21.08;;;;;;;6.44;100.00;67482.66;5031118;28;20124;-84
2022/11/28 10:24:28;;;;;;;27.45;17.90;;;;;;;6.44;100.00;67482.66;5026188;28;20038;-85
2022/11/28 10:27:01;;;;;;;29.38;21.42;;;;;;;6.44;100.00;67485.31;5011220;28;20128;-83
2022/11/28 10:29:37;;;;;;;32.33;19.73;;;;;;;;;;5022284;28;20454;-84
2022/11/28 10:32:03;;;;;;;27.27;20.15;;;;;;;6.44;100.00;67485.31;5030145;28;20128;-83
2022/11/28 10:35:04;;;;;;;30.25;23.30;;;;;;;6.47;100.00;67488.72;5023295;28;20124;-83
2022/11/28 10:37:33;;;;;;;28.95;19.90;;;;;;;;;;4975212;28;20053;-84
2022/11/28 10:40:18;;;;;;;28.77;17.77;;;;;;;6.45;100.00;67491.75;5033132;28;20131;-84
2022/11/28 10:43:01;;;;;;;30.83;19.27;;;;;;;6.47;100.00;67488.72;4989531;28;20104;-83
2022/11/28 10:45:36;;;;;;;38.05;22.40;;;;;;;6.47;100.00;67488.72;5028188;28;20060;-84
2022/11/28 10:48:17;;;;;;;30.23;22.40;;;;;;;6.48;100.00;67489.84;5027858;28;20044;-83
2022/11/28 10:50:46;;;;;;;37.90;25.38;;;;;;;6.49;100.00;67496.25;5010952;28;20493;-84
2022/11/28 10:53:40;;;;;;;37.43;23.20;;;;;;;6.54;100.00;67501.34;5027978;28;20045;-84
2022/11/28 10:56:24;;;;;;;37.00;20.05;;;;;;;;;;5006286;28;20574;-83
2022/11/28 10:58:58;;;;;;;39.22;29.33;;;;;;;;;;5006366;28;20041;-84
2022/11/28 11:01:30;;;;;;;38.90;27.70;;;;;;;6.57;100.00;67499.47;5022053;28;20053;-84
2022/11/28 11:03:55;;;;;;;34.85;23.20;;;;;;;6.57;100.00;67496.81;5032449;28;20068;-84
2022/11/28 11:06:23;;;;;;;36.03;25.55;;;;;;;;;;5028819;28;20045;-84
2022/11/28 11:08:48;;;;;;;40.72;27.88;;;;;;;6.58;100.00;67497.94;5026591;28;20125;-83
2022/11/28 11:11:26;;;;;;;40.88;26.83;;;;;;;6.60;100.00;67507.59;5030872;28;20120;-84
2022/11/28 11:14:01;;;;;;;36.58;24.92;;;;;;;6.61;100.00;67501.34;5021860;28;20144;-84
2022/11/28 11:17:03;;;;;;;40.78;27.83;;;;;;;6.64;100.00;67506.81;5028898;28;20449;-83
2022/11/28 11:19:34;;;;;;;36.45;24.05;;;;;;;6.63;100.00;67505.69;5024666;28;20053;-83
2022/11/28 11:22:23;;;;;;;37.67;25.33;;;;;;;6.67;100.00;67516.06;5029119;28;20084;-84
2022/11/28 11:25:04;;;;;;;;;;;;;;;6.66;100.00;67509.63;5030137;28;20536;-84
2022/11/28 11:27:29;;;;;;;40.05;24.25;;;;;;;;;;5027908;28;19928;-84
2022/11/28 11:29:55;;;;;;;41.47;29.83;;;;;;;6.64;100.00;67504.72;5018937;28;20041;-84
2022/11/28 11:32:29;;;;;;;41.97;27.58;;;;;;;;;;5023295;28;20058;-83
2022/11/28 11:34:58;;;;;;;44.38;31.63;;;;;;;6.74;100.00;67518.69;5034430;28;20072;-84
2022/11/28 11:37:32;;;;;;;43.17;27.90;;;;;;;6.77;100.00;67521.53;5031169;28;20049;-85
2022/11/28 11:39:58;;;;;;;45.13;33.55;;;;;;;;;;5026532;28;20041;-84
2022/11/28 11:42:29;;;;;;;46.00;29.27;;;;;;;6.81;100.00;67523.38;5026067;28;20420;-84
2022/11/28 11:44:55;;;;;;;48.90;32.45;;;;;;;6.85;100.00;67535.28;5026370;28;20044;-83
2022/11/28 11:47:42;;;;;;;37.72;26.00;;;;;;;6.84;100.00;67529.44;5030201;28;20107;-84
2022/11/28 11:50:20;;;;;;;46.88;32.20;;;;;;;6.85;100.00;67530.56;5028232;28;20064;-84
2022/11/28 11:53:00;;;;;;;45.38;31.67;;;;;;;;;;5025450;28;20532;-84
2022/11/28 11:55:28;;;;;;;44.22;28.63;;;;;;;6.89;100.00;67535.09;5020807;28;20521;-86
2022/11/28 11:57:56;;;;;;;44.00;28.80;;;;;;;6.89;100.00;67535.09;5025996;28;20025;-86
2022/11/28 12:00:27;;;;;;;45.45;31.20;;;;;;;6.90;100.00;67536.22;5020276;28;20087;-86
2022/11/28 12:02:54;;;;;;;49.20;33.15;;;;;;;;;;5025119;28;20037;-86
2022/11/28 12:05:29;;;;;;;48.78;33.83;;;;;;;6.93;100.00;67539.03;5022962;28;20330;-86
2022/11/28 12:08:23;;;;;;;44.80;33.17;;;;;;;6.93;100.00;67539.63;5024892;28;20541;-86
2022/11/28 12:10:58;;;;;;;45.20;28.92;;;;;;;6.94;100.00;67546.03;5021852;28;20064;-86
2022/11/28 12:13:24;;;;;;;46.08;34.47;;;;;;;6.93;100.00;67539.63;5040549;28;20501;-86
2022/11/28 12:15:50;;;;;;;43.10;29.63;;;;;;;;;;5025301;28;20037;-85
2022/11/28 12:18:33;;;;;;;41.58;29.13;;;;;;;;;;5020582;28;20516;-85
2022/11/28 12:21:28;;;;;;;46.90;29.00;;;;;;;6.94;100.00;67540.75;5023128;28;20516;-86
2022/11/28 12:24:11;;;;;;;48.35;34.10;;;;;;;;;;5023364;28;20049;-85